Fs Ipanema — A8PT6 — position and weather

sailwx.info

Track history (hours):
 
Tides and Currents Weather Stations Pressure Air Temp Water Temp Dewpoint Dewpoint Depression Visibility Wind Speed Wind Dir Waves Ship Positions

Fs Ipanema

Last reported at 2018-Jan-06 21:31 UTC. Time now 2018-Jan-19 15:08 UTC.
Position N 25°34' W 079°36'.
Warning: this ship's position is 12 days out of date.

Length 180 m; draft 7.7 m.

Type: Cargo ship. MMSI: 636018056.

Date/timePositionNaut miles runAvg speedWind from/ knotsBaromVisibWave heightAir tempDewpointWater temp
2018-Jan-06 21:31N 25°34' W 079°36'117.7
2018-Jan-06 21:29N 25°35' W 079°36'817.4
2018-Jan-06 21:00N 25°43' W 079°38'816.8
2018-Jan-06 20:31N 25°51' W 079°40'816.0
2018-Jan-06 20:01N 25°56' W 079°47'713.5
2018-Jan-06 19:31N 25°59' W 079°54'612.0
2018-Jan-06 19:01N 26°02' W 079°59'611.6
2018-Jan-06 18:31N 26°05' W 080°05'2 3.9
2018-Jan-06 17:59N 26°04' W 080°07'0 0.2
2018-Jan-06 17:29N 26°04' W 080°07'0 0.0
2018-Jan-06 16:59N 26°04' W 080°07'0 0.0
2018-Jan-06 16:29N 26°04' W 080°07'0 0.0
2018-Jan-06 15:59N 26°04' W 080°07'0 0.0
2018-Jan-06 15:29N 26°04' W 080°07'0 0.0
2018-Jan-06 14:59N 26°04' W 080°07'0 0.0
2018-Jan-06 14:29N 26°04' W 080°07'0 0.0
2018-Jan-06 13:59N 26°04' W 080°07'0 0.0
2018-Jan-06 13:29N 26°04' W 080°07'0 0.0
2018-Jan-06 12:59N 26°04' W 080°07'0 0.0
2018-Jan-06 12:29N 26°04' W 080°07'0 0.0
2018-Jan-06 11:59N 26°04' W 080°07'0 0.0
2018-Jan-06 11:29N 26°04' W 080°07'0 0.0
2018-Jan-06 10:59N 26°04' W 080°07'0 0.0
2018-Jan-06 10:29N 26°04' W 080°07'0 0.0
2018-Jan-06 09:59N 26°04' W 080°07'0 0.0
2018-Jan-06 09:26N 26°04' W 080°07'0 0.0
2018-Jan-06 08:59N 26°04' W 080°07'0 0.0
2018-Jan-06 08:29N 26°04' W 080°07'0 0.0
2018-Jan-06 07:59N 26°04' W 080°07'0 0.0
2018-Jan-06 07:29N 26°04' W 080°07'0 0.0
2018-Jan-06 06:59N 26°04' W 080°07'0 0.7
2018-Jan-06 06:29N 26°04' W 080°07'0 0.0
2018-Jan-06 05:59N 26°04' W 080°07'0 0.0
2018-Jan-06 05:29N 26°04' W 080°07'0 0.0
2018-Jan-06 04:59N 26°04' W 080°07'0 0.0
2018-Jan-06 04:29N 26°04' W 080°07'0 0.0
2018-Jan-06 03:59N 26°04' W 080°07'0 0.0
2018-Jan-06 03:29N 26°04' W 080°07'0 0.0
2018-Jan-06 02:59N 26°04' W 080°07'0 0.0
2018-Jan-06 02:29N 26°04' W 080°07'0 0.0
2018-Jan-06 01:59N 26°04' W 080°07'1 1.4
2018-Jan-06 01:30N 26°05' W 080°07'3 6.4
2018-Jan-06 01:00N 26°04' W 080°03'1 1.6
2018-Jan-06 00:30N 26°04' W 080°03'1 1.8
2018-Jan-06 00:00N 26°05' W 080°03'2 4.0
2018-Jan-05 23:30N 26°07' W 080°01'4 8.5
2018-Jan-05 23:00N 26°10' W 079°59'510.1
2018-Jan-05 22:30N 26°15' W 079°56'510.1
2018-Jan-05 22:00N 26°20' W 079°55'510.5
2018-Jan-05 21:30N 26°25' W 079°55'916.8
2018-Jan-05 20:59N 26°34' W 079°55'1117.6
2018-Jan-05 20:21N 26°45' W 079°55'616.9
2018-Jan-05 20:01N 26°51' W 079°55'917.2
2018-Jan-05 19:30N 26°59' W 079°55'16 0.4
2018-Jan-03 23:55N 27°08' W 079°40'3 7.2
2018-Jan-03 23:29N 27°04' W 079°40'3 7.0
2018-Jan-03 23:01N 27°01' W 079°39'4 8.4
2018-Jan-03 22:31N 26°59' W 079°35'5911.1
2018-Jan-03 17:14N 25°60' W 079°34'312.7
2018-Jan-03 17:00N 25°57' W 079°34'713.2
2018-Jan-03 16:28N 25°50' W 079°35'713.9
2018-Jan-03 16:00N 25°44' W 079°36'714.2
2018-Jan-03 15:30N 25°36' W 079°37'713.9
2018-Jan-03 15:00N 25°30' W 079°37'713.7
2018-Jan-03 14:28N 25°22' W 079°38'  
Track history (hours):
 
Tides and Currents Weather Stations Pressure Air Temp Water Temp Dewpoint Dewpoint Depression Visibility Wind Speed Wind Dir Waves Ship Positions

Fs Ipanema

Last reported at 2018-Jan-06 21:31 UTC. Time now 2018-Jan-19 15:08 UTC.
Position N 25°34' W 079°36'.
Warning: this ship's position is 12 days out of date.

Length 180 m; draft 7.7 m.

Type: Cargo ship. MMSI: 636018056.

Date/timePositionNaut miles runAvg speedWind from/ knotsBaromVisibWave heightAir tempDewpointWater temp
2018-Jan-06 21:31N 25°34' W 079°36'117.7
2018-Jan-06 21:29N 25°35' W 079°36'817.4
2018-Jan-06 21:00N 25°43' W 079°38'816.8
2018-Jan-06 20:31N 25°51' W 079°40'816.0
2018-Jan-06 20:01N 25°56' W 079°47'713.5
2018-Jan-06 19:31N 25°59' W 079°54'612.0
2018-Jan-06 19:01N 26°02' W 079°59'611.6
2018-Jan-06 18:31N 26°05' W 080°05'2 3.9
2018-Jan-06 17:59N 26°04' W 080°07'0 0.2
2018-Jan-06 17:29N 26°04' W 080°07'0 0.0
2018-Jan-06 16:59N 26°04' W 080°07'0 0.0
2018-Jan-06 16:29N 26°04' W 080°07'0 0.0
2018-Jan-06 15:59N 26°04' W 080°07'0 0.0
2018-Jan-06 15:29N 26°04' W 080°07'0 0.0
2018-Jan-06 14:59N 26°04' W 080°07'0 0.0
2018-Jan-06 14:29N 26°04' W 080°07'0 0.0
2018-Jan-06 13:59N 26°04' W 080°07'0 0.0
2018-Jan-06 13:29N 26°04' W 080°07'0 0.0
2018-Jan-06 12:59N 26°04' W 080°07'0 0.0
2018-Jan-06 12:29N 26°04' W 080°07'0 0.0
2018-Jan-06 11:59N 26°04' W 080°07'0 0.0
2018-Jan-06 11:29N 26°04' W 080°07'0 0.0
2018-Jan-06 10:59N 26°04' W 080°07'0 0.0
2018-Jan-06 10:29N 26°04' W 080°07'0 0.0
2018-Jan-06 09:59N 26°04' W 080°07'0 0.0
2018-Jan-06 09:26N 26°04' W 080°07'0 0.0
2018-Jan-06 08:59N 26°04' W 080°07'0 0.0
2018-Jan-06 08:29N 26°04' W 080°07'0 0.0
2018-Jan-06 07:59N 26°04' W 080°07'0 0.0
2018-Jan-06 07:29N 26°04' W 080°07'0 0.0
2018-Jan-06 06:59N 26°04' W 080°07'0 0.7
2018-Jan-06 06:29N 26°04' W 080°07'0 0.0
2018-Jan-06 05:59N 26°04' W 080°07'0 0.0
2018-Jan-06 05:29N 26°04' W 080°07'0 0.0
2018-Jan-06 04:59N 26°04' W 080°07'0 0.0
2018-Jan-06 04:29N 26°04' W 080°07'0 0.0
2018-Jan-06 03:59N 26°04' W 080°07'0 0.0
2018-Jan-06 03:29N 26°04' W 080°07'0 0.0
2018-Jan-06 02:59N 26°04' W 080°07'0 0.0
2018-Jan-06 02:29N 26°04' W 080°07'0 0.0
2018-Jan-06 01:59N 26°04' W 080°07'1 1.4
2018-Jan-06 01:30N 26°05' W 080°07'3 6.4
2018-Jan-06 01:00N 26°04' W 080°03'1 1.6
2018-Jan-06 00:30N 26°04' W 080°03'1 1.8
2018-Jan-06 00:00N 26°05' W 080°03'2 4.0
2018-Jan-05 23:30N 26°07' W 080°01'4 8.5
2018-Jan-05 23:00N 26°10' W 079°59'510.1
2018-Jan-05 22:30N 26°15' W 079°56'510.1
2018-Jan-05 22:00N 26°20' W 079°55'510.5
2018-Jan-05 21:30N 26°25' W 079°55'916.8
2018-Jan-05 20:59N 26°34' W 079°55'1117.6
2018-Jan-05 20:21N 26°45' W 079°55'616.9
2018-Jan-05 20:01N 26°51' W 079°55'917.2
2018-Jan-05 19:30N 26°59' W 079°55'16 0.4
2018-Jan-03 23:55N 27°08' W 079°40'3 7.2
2018-Jan-03 23:29N 27°04' W 079°40'3 7.0
2018-Jan-03 23:01N 27°01' W 079°39'4 8.4
2018-Jan-03 22:31N 26°59' W 079°35'5911.1
2018-Jan-03 17:14N 25°60' W 079°34'312.7
2018-Jan-03 17:00N 25°57' W 079°34'713.2
2018-Jan-03 16:28N 25°50' W 079°35'713.9
2018-Jan-03 16:00N 25°44' W 079°36'714.2
2018-Jan-03 15:30N 25°36' W 079°37'713.9
2018-Jan-03 15:00N 25°30' W 079°37'713.7
2018-Jan-03 14:28N 25°22' W 079°38'  

Dump ship's entire track history